Time;durP1;ratioP1;P1;durP2;ratioP2;P2;SDS_P1;SDS_P2;PMS_P1;PMS_P2;Temp;Humidity;BMP_temperature;BMP_pressure;BME280_temperature;BME280_humidity;BME280_pressure;Samples;Min_cycle;Max_cycle;Signal;HPM_P1;HPM_P2
2022/05/23 00:00:18;;;;;;;2.78;1.17;;;;;;;18.68;46.16;100621.28;2108663;28;20047;-72
2022/05/23 00:01:39;;;;;;;1.02;0.52;;;;;;;18.81;45.48;100626.38;2106320;28;20074;-72
2022/05/23 00:03:02;;;;;;;3.20;1.10;;;;;;;18.90;45.33;100621.75;2102305;28;20350;-72
2022/05/23 00:04:23;;;;;;;2.17;1.20;;;;;;;18.89;45.37;100622.66;2112272;27;20089;-72
2022/05/23 00:05:47;;;;;;;2.50;1.02;;;;;;;18.78;45.55;100621.97;2108660;28;20046;-72
2022/05/23 00:07:14;;;;;;;3.90;1.10;;;;;;;18.71;45.66;100621.22;2103452;28;20052;-72
2022/05/23 00:08:37;;;;;;;5.45;0.75;;;;;;;18.76;45.56;100620.25;2111120;28;20043;-72
2022/05/23 00:10:00;;;;;;;1.10;0.70;;;;;;;18.85;45.04;100622.72;2109583;28;20074;-72
2022/05/23 00:11:22;;;;;;;3.60;0.90;;;;;;;18.92;44.76;100617.22;2119098;27;20059;-72
2022/05/23 00:12:45;;;;;;;2.60;0.90;;;;;;;18.98;44.88;100622.44;2112321;28;20059;-72
2022/05/23 00:14:08;;;;;;;2.42;1.05;;;;;;;18.95;44.77;100619.84;2102103;28;20047;-72
2022/05/23 00:15:31;;;;;;;3.63;0.82;;;;;;;18.91;45.01;100620.81;2102253;28;20048;-72
2022/05/23 00:16:52;;;;;;;2.63;1.05;;;;;;;18.87;45.03;100613.78;2093758;28;20089;-72
2022/05/23 00:18:15;;;;;;;3.40;0.90;;;;;;;18.83;45.20;100609.41;2105790;28;20072;-72
2022/05/23 00:19:37;;;;;;;2.65;0.90;;;;;;;18.80;45.25;100613.91;2114117;27;20150;-72
2022/05/23 00:21:01;;;;;;;1.80;0.80;;;;;;;18.81;45.29;100611.22;2120221;28;20412;-72
2022/05/23 00:22:23;;;;;;;1.60;0.80;;;;;;;18.83;45.11;100617.44;2107375;28;20040;-72
2022/05/23 00:23:46;;;;;;;1.73;1.10;;;;;;;18.74;45.33;100617.59;2104879;28;20135;-72
2022/05/23 00:25:11;;;;;;;2.97;0.75;;;;;;;18.61;45.53;100614.28;2103524;28;20047;-72
2022/05/23 00:26:34;;;;;;;1.45;0.90;;;;;;;18.58;45.64;100611.66;2102404;28;20079;-72
2022/05/23 00:27:56;;;;;;;1.98;0.90;;;;;;;18.62;45.61;100613.38;2099630;28;20055;-72
2022/05/23 00:29:20;;;;;;;1.55;0.85;;;;;;;18.66;45.55;100616.88;2098433;28;20056;-72
2022/05/23 00:30:45;;;;;;;2.25;0.90;;;;;;;18.64;45.46;100614.22;2116702;28;20031;-73
2022/05/23 00:35:28;;;;;;;3.17;1.10;;;;;;;18.64;45.35;100608.88;2095854;28;20667;-73
2022/05/23 00:36:53;;;;;;;2.05;0.82;;;;;;;18.68;45.16;100607.03;2100083;28;20039;-72
2022/05/23 00:38:16;;;;;;;2.00;0.98;;;;;;;18.68;45.27;100609.72;2101594;28;20139;-72
2022/05/23 00:39:37;;;;;;;1.38;0.80;;;;;;;18.68;45.18;100615.06;2094504;28;20047;-72
2022/05/23 00:44:32;;;;;;;2.75;0.80;;;;;;;18.74;44.61;100606.91;2104083;28;20051;-72
2022/05/23 00:46:02;;;;;;;2.75;0.88;;;;;;;18.76;44.45;100610.44;2113597;27;20055;-73
2022/05/23 00:47:25;;;;;;;2.28;0.95;;;;;;;18.69;44.82;100598.09;2102659;28;20048;-72
2022/05/23 00:48:48;;;;;;;2.22;1.17;;;;;;;18.53;45.30;100600.16;2111029;28;20051;-72
2022/05/23 00:50:15;;;;;;;1.55;0.93;;;;;;;18.42;45.43;100607.50;2106153;28;20075;-72
2022/05/23 00:51:37;;;;;;;1.65;0.70;;;;;;;18.39;45.55;100609.34;2104191;28;20153;-73
2022/05/23 00:53:02;;;;;;;2.53;0.93;;;;;;;18.31;45.83;100602.34;2118078;27;20529;-72
2022/05/23 00:54:29;;;;;;;1.10;0.70;;;;;;;18.23;46.07;100608.75;2105569;28;20032;-72
2022/05/23 00:55:50;;;;;;;1.33;0.80;;;;;;;18.16;46.26;100613.34;2105299;27;20044;-73
2022/05/23 00:57:15;;;;;;;;;;;;;;;18.12;46.38;100614.28;2095903;28;20048;-71
2022/05/23 00:58:42;;;;;;;1.98;1.08;;;;;;;18.08;46.37;100615.25;2092738;28;19925;-73
2022/05/23 01:00:08;;;;;;;3.63;1.20;;;;;;;18.10;46.43;100621.47;2106661;28;20514;-72
2022/05/23 01:01:33;;;;;;;2.33;1.00;;;;;;;18.16;46.24;100615.13;2106269;28;20056;-72
2022/05/23 01:03:02;;;;;;;4.03;1.13;;;;;;;18.15;46.25;100614.25;2095478;28;20044;-71
2022/05/23 01:04:25;;;;;;;2.28;1.20;;;;;;;18.12;46.22;100616.06;2102538;28;20106;-73
2022/05/23 01:05:47;;;;;;;1.58;0.93;;;;;;;18.12;46.28;100616.94;2103626;28;20078;-73
2022/05/23 01:07:12;;;;;;;2.25;1.20;;;;;;;18.16;46.23;100615.13;2103522;28;20052;-72
2022/05/23 01:08:37;;;;;;;3.58;1.05;;;;;;;18.21;46.09;100615.91;2103456;28;20536;-72
2022/05/23 01:10:00;;;;;;;3.65;1.10;;;;;;;18.22;46.01;100615.00;2103873;28;20052;-72
2022/05/23 01:11:24;;;;;;;1.55;0.90;;;;;;;18.19;46.11;100609.72;2103425;28;20051;-72
2022/05/23 01:12:47;;;;;;;2.17;0.65;;;;;;;18.16;46.16;100612.44;2091997;28;20444;-72
2022/05/23 01:14:14;;;;;;;1.30;0.80;;;;;;;18.16;46.21;100609.78;2107916;28;20043;-72
2022/05/23 01:15:36;;;;;;;1.15;0.80;;;;;;;18.21;46.11;100613.25;2105998;28;20075;-72
2022/05/23 01:16:59;;;;;;;4.30;0.85;;;;;;;18.22;45.92;100610.56;2102507;28;20076;-72
2022/05/23 01:18:21;;;;;;;1.05;0.63;;;;;;;18.21;45.97;100607.91;2115006;27;20502;-72
2022/05/23 01:19:44;;;;;;;3.15;1.00;;;;;;;18.17;45.98;100612.44;2112652;28;20040;-72
2022/05/23 01:21:11;;;;;;;1.17;0.90;;;;;;;18.11;46.19;100609.88;2101425;28;20052;-73
2022/05/23 01:22:42;;;;;;;2.30;0.60;;;;;;;17.96;46.43;100615.47;2101409;28;20558;-73
2022/05/23 01:24:29;;;;;;;6.35;1.00;;;;;;;17.85;46.80;100610.28;2105487;28;20077;-72
2022/05/23 01:25:56;;;;;;;1.77;0.68;;;;;;;17.80;46.81;100617.50;2101789;28;20083;-72
2022/05/23 01:27:30;;;;;;;1.88;0.80;;;;;;;17.78;46.83;100611.31;2103574;28;20173;-72
2022/05/23 01:28:52;;;;;;;3.95;1.90;;;;;;;17.81;46.74;100613.03;2103518;28;20054;-72
2022/05/23 01:30:40;;;;;;;1.83;0.98;;;;;;;17.87;46.58;100618.28;2106849;28;20081;-72
2022/05/23 01:32:11;;;;;;;1.77;0.85;;;;;;;17.86;46.66;100611.19;2104468;28;20051;-72
2022/05/23 01:33:36;;;;;;;2.80;1.02;;;;;;;17.88;46.52;100606.69;2101620;28;20055;-72
2022/05/23 01:35:00;;;;;;;2.08;0.77;;;;;;;17.88;46.37;100614.72;2101416;28;20059;-72
2022/05/23 01:36:22;;;;;;;2.42;0.90;;;;;;;17.88;46.36;100615.59;2110540;28;20082;-72
2022/05/23 01:37:45;;;;;;;2.63;1.10;;;;;;;17.84;46.55;100607.66;2102967;28;20069;-72
2022/05/23 01:39:15;;;;;;;3.08;1.00;;;;;;;17.72;46.84;100613.22;2096397;28;20079;-72
2022/05/23 01:40:37;;;;;;;2.38;0.77;;;;;;;17.68;47.00;100619.50;2092091;28;20044;-72
2022/05/23 01:42:04;;;;;;;2.88;1.00;;;;;;;17.73;46.92;100622.97;2092949;28;20126;-73
2022/05/23 01:43:27;;;;;;;4.40;0.80;;;;;;;17.76;46.77;100620.25;2097702;28;20048;-73
2022/05/23 01:45:20;;;;;;;3.00;0.98;;;;;;;17.80;46.68;100619.28;2106485;28;20056;-72
2022/05/23 01:46:42;;;;;;;1.80;0.65;;;;;;;17.82;46.66;100620.16;2101110;28;20052;-72
2022/05/23 01:48:20;;;;;;;1.90;0.73;;;;;;;17.79;46.71;100620.19;2096773;28;20045;-72
2022/05/23 01:49:42;;;;;;;2.60;0.82;;;;;;;17.75;46.74;100619.38;2105952;28;20124;-72
2022/05/23 01:51:22;;;;;;;3.10;1.58;;;;;;;17.73;46.90;100626.50;2105054;28;20133;-72
2022/05/23 01:52:44;;;;;;;2.03;0.90;;;;;;;17.75;46.85;100619.38;2093599;28;20151;-73
2022/05/23 01:54:15;;;;;;;2.47;0.93;;;;;;;17.73;46.78;100621.19;2107275;28;20419;-72
2022/05/23 01:55:44;;;;;;;3.17;0.90;;;;;;;17.73;46.82;100621.19;2091117;28;20076;-72
2022/05/23 01:57:26;;;;;;;3.40;1.17;;;;;;;17.72;46.82;100632.75;2103993;28;20044;-72
2022/05/23 02:02:11;;;;;;;1.30;0.70;;;;;;;17.73;46.73;100628.31;2093858;28;20190;-73
2022/05/23 02:03:36;;;;;;;2.55;1.00;;;;;;;17.73;46.60;100630.97;2092820;28;20057;-72
2022/05/23 02:04:58;;;;;;;1.77;1.15;;;;;;;17.72;46.69;100629.25;2092089;28;20087;-72
2022/05/23 02:06:21;;;;;;;2.83;0.90;;;;;;;17.69;46.76;100629.28;2091016;28;20048;-73
2022/05/23 02:07:48;;;;;;;1.58;0.85;;;;;;;17.67;46.87;100628.41;2092199;28;20547;-72
2022/05/23 02:09:12;;;;;;;1.10;0.88;;;;;;;17.64;47.09;100626.69;2108804;28;20089;-72
2022/05/23 02:10:44;;;;;;;1.38;0.73;;;;;;;17.57;47.32;100629.44;2097328;28;20040;-72
2022/05/23 02:12:10;;;;;;;5.55;1.08;;;;;;;17.49;47.51;100630.41;2094827;28;20056;-72
2022/05/23 02:13:37;;;;;;;1.33;0.93;;;;;;;17.47;47.46;100636.69;2094871;28;20451;-73
2022/05/23 02:14:58;;;;;;;1.13;0.70;;;;;;;17.46;47.36;100629.56;2101458;28;20514;-72
2022/05/23 02:16:48;;;;;;;2.88;0.70;;;;;;;17.45;47.24;100631.38;2094660;28;20059;-72
2022/05/23 02:18:09;;;;;;;4.25;0.98;;;;;;;17.45;47.18;100628.72;2092730;28;20052;-72
2022/05/23 02:19:32;;;;;;;2.30;0.98;;;;;;;17.46;47.18;100627.78;2098996;28;20082;-72
2022/05/23 02:21:07;;;;;;;2.47;1.13;;;;;;;17.45;47.07;100626.03;2097110;28;20056;-73
2022/05/23 02:22:30;;;;;;;2.88;0.70;;;;;;;17.48;47.04;100619.75;2093290;28;20048;-72
2022/05/23 02:24:11;;;;;;;3.33;1.10;;;;;;;17.50;47.04;100626.84;2096972;28;20610;-72
2022/05/23 02:25:32;;;;;;;1.15;0.80;;;;;;;17.53;46.90;100615.22;2101846;28;20183;-72
2022/05/23 02:27:01;;;;;;;1.45;0.95;;;;;;;17.56;46.75;100612.53;2096111;28;20045;-72
2022/05/23 02:28:37;;;;;;;1.80;0.70;;;;;;;17.62;46.60;100611.56;2103538;28;20138;-72
2022/05/23 02:29:58;;;;;;;3.53;0.70;;;;;;;17.64;46.68;100609.78;2094970;28;20040;-72
2022/05/23 02:31:21;;;;;;;1.90;0.95;;;;;;;17.66;46.53;100608.81;2094406;28;20408;-72
2022/05/23 02:33:16;;;;;;;4.22;1.00;;;;;;;17.64;46.78;100605.31;2101516;28;20161;-72
2022/05/23 02:34:41;;;;;;;3.20;0.82;;;;;;;17.63;46.73;100608.00;2088723;28;20044;-72
2022/05/23 02:36:04;;;;;;;2.90;0.90;;;;;;;17.60;46.71;100603.56;2086410;28;20053;-72
2022/05/23 02:37:26;;;;;;;1.75;1.02;;;;;;;17.58;46.91;100609.84;2099134;28;20536;-71
2022/05/23 02:38:52;;;;;;;2.42;0.95;;;;;;;17.53;47.07;100615.22;2094854;28;20063;-72
2022/05/23 02:40:15;;;;;;;3.38;1.00;;;;;;;17.43;47.24;100613.63;2091307;28;20040;-72
2022/05/23 02:41:37;;;;;;;3.72;0.90;;;;;;;17.21;47.75;100607.69;2094451;28;20052;-72
2022/05/23 02:43:00;;;;;;;2.30;1.17;;;;;;;17.08;48.07;100608.78;2094385;28;20101;-72
2022/05/23 02:44:25;;;;;;;1.40;0.80;;;;;;;17.09;48.10;100606.09;2096407;28;20091;-72
2022/05/23 02:45:47;;;;;;;3.28;0.73;;;;;;;17.14;48.01;100611.34;2099205;28;20048;-72
2022/05/23 02:47:10;;;;;;;0.80;0.60;;;;;;;17.22;47.78;100611.25;2103178;28;20071;-72
2022/05/23 02:48:35;;;;;;;1.70;0.85;;;;;;;17.24;47.71;100605.00;2093972;28;20138;-72
2022/05/23 02:50:01;;;;;;;3.28;1.05;;;;;;;17.18;47.88;100609.53;2078603;28;20060;-72
2022/05/23 02:51:33;;;;;;;1.48;0.85;;;;;;;17.06;48.11;100606.16;2092876;28;21221;-72
2022/05/23 02:53:02;;;;;;;3.28;1.23;;;;;;;17.06;48.15;100608.81;2090891;28;20052;-72
2022/05/23 02:54:29;;;;;;;3.45;1.00;;;;;;;17.04;48.17;100607.94;2093042;28;20677;-73
2022/05/23 02:55:57;;;;;;;5.40;1.10;;;;;;;17.01;48.35;100602.63;2088540;28;20057;-73
2022/05/23 02:57:18;;;;;;;3.13;1.00;;;;;;;17.05;48.25;100603.50;2100235;28;20036;-72
2022/05/23 02:58:41;;;;;;;2.28;0.93;;;;;;;17.11;48.16;100606.06;2096926;28;20041;-72
2022/05/23 03:00:05;;;;;;;1.15;0.80;;;;;;;17.13;48.07;100602.47;2094014;28;20060;-73
2022/05/23 03:01:28;;;;;;;1.88;0.80;;;;;;;17.15;47.98;100607.78;2102300;28;20055;-72
2022/05/23 03:03:01;;;;;;;2.55;0.90;;;;;;;17.19;47.85;100601.53;2091012;28;20528;-72
2022/05/23 03:04:28;;;;;;;4.90;1.00;;;;;;;17.21;47.68;100597.03;2088364;28;20493;-72
2022/05/23 03:05:52;;;;;;;1.73;0.70;;;;;;;17.23;47.81;100608.56;2083081;28;20164;-73
2022/05/23 03:07:14;;;;;;;10.38;3.00;;;;;;;17.21;47.69;100607.69;2090044;28;20044;-72
2022/05/23 03:08:43;;;;;;;2.00;0.90;;;;;;;17.16;47.79;100609.56;2091580;28;20055;-72
2022/05/23 03:10:05;;;;;;;2.95;0.90;;;;;;;17.10;48.08;100607.84;2099911;28;20500;-72
2022/05/23 03:11:28;;;;;;;1.63;0.77;;;;;;;17.07;48.26;100599.88;2093426;28;20519;-73
2022/05/23 03:12:52;;;;;;;2.92;1.20;;;;;;;17.11;48.27;100598.97;2091142;28;20048;-73
2022/05/23 03:14:13;;;;;;;2.17;1.00;;;;;;;17.16;48.21;100601.56;2096577;28;20045;-72
2022/05/23 03:15:37;;;;;;;3.03;1.00;;;;;;;17.22;48.10;100596.13;2091034;28;20114;-73
2022/05/23 03:17:03;;;;;;;3.15;1.00;;;;;;;17.27;48.10;100598.72;2090866;28;20508;-72
2022/05/23 03:18:29;;;;;;;1.55;0.90;;;;;;;17.28;48.04;100596.03;2095713;28;20044;-73
2022/05/23 03:19:54;;;;;;;3.33;0.93;;;;;;;17.27;48.06;100596.94;2097658;28;20035;-72
2022/05/23 03:26:58;;;;;;;3.35;0.98;;;;;;;17.29;48.09;100597.81;2088340;28;20140;-71
2022/05/23 03:28:07;;;;;;;3.92;1.20;;;;;;;17.54;48.30;100601.88;2098369;28;20052;-72
2022/05/23 03:29:30;;;;;;;3.85;1.00;;;;;;;17.58;48.42;100604.50;2102045;28;20123;-73
2022/05/23 03:30:54;;;;;;;2.72;0.80;;;;;;;17.62;48.43;100607.13;2093805;28;20397;-73
2022/05/23 03:32:17;;;;;;;2.90;0.90;;;;;;;17.66;48.40;100616.84;2092207;28;20066;-72
2022/05/23 03:33:39;;;;;;;2.45;1.02;;;;;;;17.72;48.35;100613.22;2094567;28;20044;-72
2022/05/23 03:35:02;;;;;;;2.85;1.23;;;;;;;17.78;48.21;100616.66;2101681;28;20063;-73
2022/05/23 03:36:25;;;;;;;1.42;0.90;;;;;;;17.91;47.95;100620.00;2099409;28;20068;-72
2022/05/23 03:37:46;;;;;;;2.63;0.95;;;;;;;18.03;47.65;100611.78;2093999;28;20591;-72
2022/05/23 03:39:08;;;;;;;2.08;0.85;;;;;;;18.15;47.43;100611.56;2098651;28;20051;-72
2022/05/23 03:40:34;;;;;;;1.65;0.80;;;;;;;18.26;47.20;100614.91;2102560;28;20067;-72
2022/05/23 03:41:57;;;;;;;6.40;1.33;;;;;;;18.37;47.12;100622.75;2093034;28;20135;-72
2022/05/23 03:43:19;;;;;;;4.10;0.90;;;;;;;18.47;47.08;100616.31;2102128;28;20040;-72
2022/05/23 03:44:41;;;;;;;5.90;1.33;;;;;;;18.58;47.02;100616.13;2092255;28;20069;-72
2022/05/23 03:46:11;;;;;;;7.43;1.27;;;;;;;18.68;46.87;100621.28;2093403;28;20048;-73
2022/05/23 03:47:34;;;;;;;2.67;1.00;;;;;;;18.76;46.70;100615.78;2083250;28;20057;-72
2022/05/23 03:49:07;;;;;;;2.50;1.00;;;;;;;18.90;46.70;100618.19;2091081;28;20044;-72
2022/05/23 03:50:32;;;;;;;1.92;0.80;;;;;;;19.01;46.71;100608.13;2085863;28;20053;-72
2022/05/23 03:51:56;;;;;;;3.13;1.27;;;;;;;19.15;46.59;100610.50;2099165;28;20063;-72
2022/05/23 03:53:19;;;;;;;1.58;0.95;;;;;;;19.28;46.62;100614.69;2110575;28;20415;-72
2022/05/23 03:54:49;;;;;;;3.67;1.20;;;;;;;19.42;46.45;100615.25;2104913;28;20048;-73
2022/05/23 03:56:13;;;;;;;2.53;1.27;;;;;;;19.55;46.19;100610.53;2101269;28;20055;-73
2022/05/23 03:57:40;;;;;;;5.65;1.25;;;;;;;19.71;46.00;100603.88;2098838;28;20202;-71
2022/05/23 03:59:04;;;;;;;2.58;1.00;;;;;;;19.84;45.81;100603.53;2105699;28;20546;-72
2022/05/23 04:00:36;;;;;;;2.42;1.10;;;;;;;20.02;45.75;100609.34;2097097;28;20066;-72
2022/05/23 04:02:00;;;;;;;2.45;1.17;;;;;;;20.17;45.57;100611.63;2086264;28;20083;-72
2022/05/23 04:03:29;;;;;;;3.53;0.98;;;;;;;20.27;45.36;100618.50;2090345;28;20049;-72
2022/05/23 04:04:51;;;;;;;3.15;1.42;;;;;;;20.24;45.22;100607.84;2087732;28;20045;-71
2022/05/23 04:06:35;;;;;;;2.72;0.98;;;;;;;20.17;45.25;100609.81;2103781;28;20059;-72
2022/05/23 04:08:01;;;;;;;1.63;0.98;;;;;;;20.22;45.44;100607.00;2100615;28;20048;-71
2022/05/23 04:09:31;;;;;;;1.92;0.82;;;;;;;20.37;45.43;100611.13;2100839;28;20075;-73
2022/05/23 04:10:54;;;;;;;2.60;1.08;;;;;;;20.54;45.00;100601.72;2107768;28;20043;-72
2022/05/23 04:12:18;;;;;;;3.97;1.25;;;;;;;20.74;44.53;100609.19;2102076;28;20040;-71
2022/05/23 04:13:42;;;;;;;4.78;2.78;;;;;;;20.96;44.07;100604.06;2095351;28;20048;-72
2022/05/23 04:15:05;;;;;;;4.70;1.85;;;;;;;21.05;44.00;100609.19;2099516;28;20126;-72
2022/05/23 04:16:29;;;;;;;2.83;1.30;;;;;;;21.15;43.86;100609.75;2102132;28;20520;-72
2022/05/23 04:17:54;;;;;;;3.80;1.23;;;;;;;21.31;43.61;100603.94;2096603;28;20460;-71
2022/05/23 04:19:17;;;;;;;5.22;1.50;;;;;;;21.52;43.25;100602.38;2095635;28;20044;-72
2022/05/23 04:20:59;;;;;;;4.15;1.48;;;;;;;21.77;42.64;100606.03;2090648;28;20083;-72
2022/05/23 04:22:22;;;;;;;4.57;1.23;;;;;;;21.97;42.27;100605.41;2100583;28;20044;-72
2022/05/23 04:23:56;;;;;;;1.95;1.23;;;;;;;22.16;41.79;100600.25;2109430;28;20075;-72
2022/05/23 04:25:19;;;;;;;4.53;1.13;;;;;;;22.36;41.46;100600.44;2103341;28;20141;-71
2022/05/23 04:26:41;;;;;;;4.70;1.40;;;;;;;22.54;41.15;100606.97;2102392;28;20044;-71
2022/05/23 04:28:04;;;;;;;2.92;0.98;;;;;;;22.73;40.76;100604.53;2107027;28;20479;-72
2022/05/23 04:29:27;;;;;;;3.20;1.15;;;;;;;22.89;40.48;100611.09;2099292;28;20044;-72
2022/05/23 04:30:49;;;;;;;4.50;1.00;;;;;;;23.06;40.28;100605.94;2098988;28;20033;-72
2022/05/23 04:35:51;;;;;;;2.67;0.60;;;;;;;23.82;39.31;100611.91;2098082;28;20780;-71
2022/05/23 04:37:18;;;;;;;2.13;1.17;;;;;;;24.06;39.20;100607.28;2099966;28;20535;-72
2022/05/23 04:38:45;;;;;;;2.17;0.95;;;;;;;24.31;38.88;100611.66;2103300;28;20047;-71
2022/05/23 04:40:09;;;;;;;1.52;1.10;;;;;;;24.53;38.67;100605.28;2105352;28;20184;-71
2022/05/23 04:41:32;;;;;;;4.05;1.08;;;;;;;24.73;38.58;100609.78;2115013;28;20089;-72
2022/05/23 04:42:57;;;;;;;4.45;1.00;;;;;;;24.95;38.25;100607.88;2101504;28;20056;-72
2022/05/23 04:44:20;;;;;;;4.50;1.08;;;;;;;25.14;38.14;100610.59;2100954;28;20048;-72
2022/05/23 04:45:43;;;;;;;3.05;0.80;;;;;;;25.32;37.75;100615.16;2098079;28;20119;-72
2022/05/23 04:49:41;;;;;;;3.90;0.95;;;;;;;25.83;36.91;100608.16;2102809;28;20048;-72
2022/05/23 04:51:18;;;;;;;4.93;0.98;;;;;;;26.04;36.29;100609.81;2104490;28;20040;-72
2022/05/23 04:52:43;;;;;;;2.58;0.80;;;;;;;26.32;36.06;100613.84;2093946;28;20378;-72
2022/05/23 04:54:05;;;;;;;;;;;;;;;26.50;35.99;100610.16;2100145;28;20102;-72
2022/05/23 04:55:29;;;;;;;2.88;1.50;;;;;;;26.76;35.92;100616.91;2107754;28;19986;-72
2022/05/23 04:56:52;;;;;;;3.53;1.40;;;;;;;26.93;35.70;100615.06;2101051;28;20040;-72
2022/05/23 04:58:20;;;;;;;1.58;1.13;;;;;;;27.12;35.29;100616.75;2094362;28;20102;-72
2022/05/23 04:59:44;;;;;;;3.50;1.20;;;;;;;27.27;34.96;100613.19;2098535;28;20052;-72
2022/05/23 05:01:16;;;;;;;3.83;1.20;;;;;;;27.45;34.56;100614.00;2097584;28;20143;-72
2022/05/23 05:02:39;;;;;;;4.50;1.10;;;;;;;27.66;34.26;100615.53;2093767;28;20133;-72
2022/05/23 05:04:03;;;;;;;2.53;1.10;;;;;;;27.87;33.99;100618.84;2096520;28;20585;-72
2022/05/23 05:05:33;;;;;;;1.98;0.95;;;;;;;28.17;33.78;100614.34;2101725;28;20048;-72
2022/05/23 05:06:56;;;;;;;3.88;1.20;;;;;;;28.45;33.45;100621.72;2107817;28;20482;-73
2022/05/23 05:08:20;;;;;;;3.65;1.20;;;;;;;28.70;32.95;100615.63;2103622;28;20135;-72
2022/05/23 05:09:46;;;;;;;1.67;0.80;;;;;;;28.92;32.51;100621.53;2102277;28;20054;-72
2022/05/23 05:11:09;;;;;;;1.58;0.93;;;;;;;29.15;31.59;100620.94;2097595;28;20028;-72
2022/05/23 05:12:32;;;;;;;3.50;0.80;;;;;;;29.37;30.98;100616.88;2096701;28;20044;-72
2022/05/23 05:13:55;;;;;;;2.17;1.48;;;;;;;29.57;30.76;100621.91;2093567;28;20148;-73
2022/05/23 05:15:17;;;;;;;5.65;1.45;;;;;;;29.79;30.66;100622.25;2102763;28;20144;-73
2022/05/23 05:16:40;;;;;;;;;;;;;;;29.90;30.78;100621.53;2097227;28;20047;-72
2022/05/23 05:18:05;;;;;;;4.10;1.10;;;;;;;30.14;30.39;100613.56;2098279;28;19920;-72
2022/05/23 05:19:31;;;;;;;2.63;0.95;;;;;;;30.34;29.91;100618.53;2093688;28;20080;-73
2022/05/23 05:21:04;;;;;;;4.10;1.55;;;;;;;30.52;29.73;100616.44;2103678;28;21653;-72
2022/05/23 05:22:53;;;;;;;4.03;1.10;;;;;;;30.77;29.62;100620.06;2099691;28;20047;-72
2022/05/23 05:24:38;;;;;;;2.70;1.10;;;;;;;31.03;29.12;100620.06;2095639;28;20068;-72
2022/05/23 05:26:28;;;;;;;3.17;1.00;;;;;;;31.22;28.90;100625.97;2112965;27;20046;-73
2022/05/23 05:27:51;;;;;;;1.85;1.00;;;;;;;31.35;28.51;100621.34;2103829;28;20518;-73
2022/05/23 05:29:14;;;;;;;4.68;1.40;;;;;;;31.48;28.59;100624.91;2110399;27;20130;-74
2022/05/23 05:30:43;;;;;;;4.95;1.30;;;;;;;31.65;28.31;100623.69;2102025;28;20047;-74
2022/05/23 05:32:11;;;;;;;2.95;1.40;;;;;;;31.75;28.44;100624.78;2098962;28;20074;-74
2022/05/23 05:33:39;;;;;;;4.90;1.20;;;;;;;31.87;27.93;100621.13;2108007;28;20090;-75
2022/05/23 05:35:07;;;;;;;4.90;1.35;;;;;;;31.96;27.65;100631.34;2095695;28;20156;-74
2022/05/23 05:36:37;;;;;;;5.47;1.00;;;;;;;31.96;27.39;100623.16;2111988;27;20059;-73
2022/05/23 05:38:25;;;;;;;2.80;1.02;;;;;;;31.98;27.44;100625.75;2109655;28;20059;-73
2022/05/23 05:39:50;;;;;;;5.38;1.38;;;;;;;32.19;27.44;100618.69;2111781;27;20748;-74
2022/05/23 05:41:17;;;;;;;5.43;1.17;;;;;;;32.37;27.04;100622.72;2108210;28;20552;-73
2022/05/23 05:42:46;;;;;;;5.05;2.00;;;;;;;32.49;26.73;100631.88;2104669;28;20071;-74
2022/05/23 05:44:14;;;;;;;4.85;1.00;;;;;;;32.60;26.45;100628.28;2093884;28;20177;-74
2022/05/23 05:45:45;;;;;;;5.28;1.13;;;;;;;32.74;26.38;100620.78;2100999;28;20048;-74
2022/05/23 05:47:21;;;;;;;7.47;1.67;;;;;;;32.86;26.52;100629.88;2102908;28;20036;-74
2022/05/23 05:48:47;;;;;;;8.63;1.40;;;;;;;32.95;26.43;100625.53;2102882;28;20080;-74
2022/05/23 05:50:14;;;;;;;4.25;1.45;;;;;;;32.98;26.68;100628.88;2095643;28;20044;-74
2022/05/23 05:52:08;;;;;;;4.30;1.40;;;;;;;33.04;26.82;100624.78;2103322;28;20625;-74
2022/05/23 05:53:57;;;;;;;3.97;1.30;;;;;;;33.13;26.86;100626.78;2106656;27;20054;-74
2022/05/23 05:55:31;;;;;;;3.58;1.50;;;;;;;33.23;26.50;100633.28;2095282;28;20102;-73
2022/05/23 05:56:53;;;;;;;4.88;1.20;;;;;;;33.25;26.33;100630.44;2093858;28;20056;-73
2022/05/23 05:58:17;;;;;;;4.22;1.27;;;;;;;33.20;26.45;100634.41;2095193;28;20033;-74
2022/05/23 05:59:44;;;;;;;5.88;1.63;;;;;;;33.18;26.77;100627.28;2101263;28;20048;-74
2022/05/23 06:01:09;;;;;;;4.47;1.70;;;;;;;33.31;26.73;100636.28;2103051;28;20085;-73
2022/05/23 06:02:32;;;;;;;3.65;1.40;;;;;;;33.44;26.48;100634.28;2111114;28;20103;-73
2022/05/23 06:03:55;;;;;;;3.90;1.20;;;;;;;33.56;26.42;100630.53;2102409;28;20083;-73
2022/05/23 06:05:18;;;;;;;2.85;1.30;;;;;;;33.66;25.75;100636.13;2094581;28;20040;-74
2022/05/23 06:12:10;;;;;;;4.25;1.50;;;;;;;33.06;26.84;100641.97;2098046;28;20064;-74
2022/05/23 06:13:36;;;;;;;3.35;1.30;;;;;;;32.87;27.58;100641.69;2105612;28;20055;-74
2022/05/23 06:15:07;;;;;;;7.22;1.25;;;;;;;32.75;27.59;100638.06;2105579;28;20139;-74
2022/05/23 06:16:32;;;;;;;5.38;1.38;;;;;;;32.70;27.76;100648.47;2094000;28;20067;-73
2022/05/23 06:17:55;;;;;;;5.07;1.38;;;;;;;32.62;27.76;100650.91;2095369;28;20044;-74
2022/05/23 06:19:19;;;;;;;3.60;1.30;;;;;;;32.53;27.22;100657.09;2088818;28;20087;-73
2022/05/23 06:21:03;;;;;;;3.70;1.58;;;;;;;32.38;27.00;100653.69;2105139;28;20052;-72
2022/05/23 06:22:29;;;;;;;4.60;1.45;;;;;;;32.38;26.83;100653.69;2101941;28;20066;-72
2022/05/23 06:24:00;;;;;;;5.18;1.30;;;;;;;32.31;27.04;100658.75;2102204;28;20142;-72
2022/05/23 06:25:34;;;;;;;4.68;1.45;;;;;;;32.28;27.33;100663.59;2102869;28;20078;-72
2022/05/23 06:27:02;;;;;;;5.85;1.27;;;;;;;32.14;27.49;100664.63;2100081;28;20108;-73
2022/05/23 06:28:55;;;;;;;5.40;1.75;;;;;;;31.87;27.72;100662.09;2104986;28;20463;-72
2022/05/23 06:30:19;;;;;;;5.13;1.23;;;;;;;31.80;27.90;100670.84;2102896;28;20135;-73
2022/05/23 06:31:56;;;;;;;6.75;1.23;;;;;;;31.73;28.00;100664.09;2103290;28;20580;-72
2022/05/23 06:33:21;;;;;;;3.08;1.20;;;;;;;31.84;27.82;100669.63;2110945;28;20047;-73
2022/05/23 06:34:53;;;;;;;3.00;1.20;;;;;;;31.92;27.80;100665.34;2104987;28;20466;-73
2022/05/23 06:36:16;;;;;;;4.20;1.30;;;;;;;31.96;27.72;100668.72;2107124;28;20625;-72
2022/05/23 06:37:41;;;;;;;6.50;1.77;;;;;;;31.96;27.48;100674.19;2096507;28;20048;-73
2022/05/23 06:39:25;;;;;;;4.03;1.27;;;;;;;32.03;27.44;100676.31;2104207;28;20048;-72
2022/05/23 06:41:08;;;;;;;3.72;1.10;;;;;;;32.21;27.43;100671.38;2104654;28;20377;-72
2022/05/23 06:42:48;;;;;;;;;;;;;;;32.12;26.98;100671.16;2098595;28;20040;-73
2022/05/23 06:44:43;;;;;;;5.32;1.35;;;;;;;32.21;27.43;100676.84;2094569;28;20363;-73
2022/05/23 06:46:41;;;;;;;3.55;1.20;;;;;;;32.39;27.30;100671.81;2095944;28;20137;-73
2022/05/23 06:48:23;;;;;;;5.97;1.30;;;;;;;32.48;26.83;100670.25;2096900;28;20053;-72
2022/05/23 06:50:02;;;;;;;4.38;1.20;;;;;;;32.53;26.95;100671.63;2104637;28;20044;-72
2022/05/23 06:51:55;;;;;;;5.40;1.65;;;;;;;32.53;27.13;100679.84;2097586;28;20059;-73
2022/05/23 06:53:30;;;;;;;4.53;1.23;;;;;;;32.52;27.02;100675.34;2103707;28;20048;-73
2022/05/23 06:55:10;;;;;;;4.38;1.13;;;;;;;32.45;26.96;100683.16;2102772;28;20482;-73
2022/05/23 06:56:38;;;;;;;3.83;1.00;;;;;;;32.29;26.74;100687.19;2095045;28;20041;-73
2022/05/23 06:58:01;;;;;;;6.57;1.55;;;;;;;32.21;26.99;100685.03;2098093;28;20109;-73
2022/05/23 06:59:24;;;;;;;5.82;1.50;;;;;;;32.14;27.09;100681.03;2107909;28;20495;-73
2022/05/23 07:00:46;;;;;;;8.35;1.48;;;;;;;32.17;27.32;100686.25;2110622;28;20188;-73
2022/05/23 07:02:13;;;;;;;7.35;1.30;;;;;;;32.33;27.42;100675.91;2102850;28;20051;-73
2022/05/23 07:03:45;;;;;;;6.57;1.77;;;;;;;32.62;27.09;100676.41;2103682;28;20478;-72
2022/05/23 07:13:44;;;;;;;2.97;1.50;;;;;;;32.71;27.04;100683.03;2105010;28;20075;-72
2022/05/23 07:15:08;;;;;;;7.22;1.58;;;;;;;32.70;27.00;100676.69;2096339;28;20039;-72
2022/05/23 07:16:35;;;;;;;6.95;1.50;;;;;;;32.71;26.87;100680.31;2102860;28;20052;-73
2022/05/23 07:18:00;;;;;;;4.10;1.30;;;;;;;32.70;26.76;100676.69;2102650;28;20043;-72
2022/05/23 07:19:36;;;;;;;5.88;1.55;;;;;;;32.65;26.98;100667.94;2096431;28;20048;-73
2022/05/23 07:21:07;;;;;;;4.70;1.50;;;;;;;32.62;27.24;100672.81;2100297;28;20044;-72
2022/05/23 07:22:38;;;;;;;2.95;1.35;;;;;;;32.73;27.32;100672.84;2111593;28;20051;-72